sensor_id;sensor_type;location;lat;lon;timestamp;P1;durP1;ratioP1;P2;durP2;ratioP2
57225;SDS011;43082;43.568;22.256;2022-07-26T00:01:53;9.52;;;5.40;;
57225;SDS011;43082;43.568;22.256;2022-07-26T00:04:19;8.13;;;4.90;;
57225;SDS011;43082;43.568;22.256;2022-07-26T00:06:44;8.27;;;4.90;;
57225;SDS011;43082;43.568;22.256;2022-07-26T00:09:10;8.52;;;4.95;;
57225;SDS011;43082;43.568;22.256;2022-07-26T00:11:35;7.82;;;4.75;;
57225;SDS011;43082;43.568;22.256;2022-07-26T00:14:02;7.43;;;4.65;;
57225;SDS011;43082;43.568;22.256;2022-07-26T00:16:29;8.63;;;5.47;;
57225;SDS011;43082;43.568;22.256;2022-07-26T00:18:55;7.65;;;5.07;;
57225;SDS011;43082;43.568;22.256;2022-07-26T00:21:20;8.90;;;5.18;;
57225;SDS011;43082;43.568;22.256;2022-07-26T00:23:46;9.73;;;5.05;;
57225;SDS011;43082;43.568;22.256;2022-07-26T00:26:11;9.07;;;5.68;;
57225;SDS011;43082;43.568;22.256;2022-07-26T00:28:37;7.85;;;5.40;;
57225;SDS011;43082;43.568;22.256;2022-07-26T00:31:03;7.80;;;5.07;;
57225;SDS011;43082;43.568;22.256;2022-07-26T00:33:28;9.35;;;5.70;;
57225;SDS011;43082;43.568;22.256;2022-07-26T00:35:54;8.48;;;5.57;;
57225;SDS011;43082;43.568;22.256;2022-07-26T00:38:19;10.55;;;5.90;;
57225;SDS011;43082;43.568;22.256;2022-07-26T00:40:45;14.52;;;5.72;;
57225;SDS011;43082;43.568;22.256;2022-07-26T00:43:10;8.43;;;5.90;;
57225;SDS011;43082;43.568;22.256;2022-07-26T00:45:36;8.60;;;5.35;;
57225;SDS011;43082;43.568;22.256;2022-07-26T00:48:01;8.70;;;5.35;;
57225;SDS011;43082;43.568;22.256;2022-07-26T00:50:27;8.35;;;5.72;;
57225;SDS011;43082;43.568;22.256;2022-07-26T00:52:52;8.48;;;5.07;;
57225;SDS011;43082;43.568;22.256;2022-07-26T00:55:19;7.30;;;5.15;;
57225;SDS011;43082;43.568;22.256;2022-07-26T00:57:44;8.63;;;5.25;;
57225;SDS011;43082;43.568;22.256;2022-07-26T01:00:20;7.70;;;5.32;;
57225;SDS011;43082;43.568;22.256;2022-07-26T01:02:47;9.27;;;6.35;;
57225;SDS011;43082;43.568;22.256;2022-07-26T01:05:12;9.77;;;5.78;;
57225;SDS011;43082;43.568;22.256;2022-07-26T01:07:38;9.13;;;5.97;;
57225;SDS011;43082;43.568;22.256;2022-07-26T01:10:06;8.05;;;5.55;;
57225;SDS011;43082;43.568;22.256;2022-07-26T01:12:36;8.23;;;5.35;;
57225;SDS011;43082;43.568;22.256;2022-07-26T01:15:02;7.95;;;5.78;;
57225;SDS011;43082;43.568;22.256;2022-07-26T01:17:27;7.90;;;5.50;;
57225;SDS011;43082;43.568;22.256;2022-07-26T01:19:53;9.25;;;6.20;;
57225;SDS011;43082;43.568;22.256;2022-07-26T01:22:18;9.88;;;5.95;;
57225;SDS011;43082;43.568;22.256;2022-07-26T01:24:44;8.07;;;5.72;;
57225;SDS011;43082;43.568;22.256;2022-07-26T01:27:09;8.82;;;5.88;;
57225;SDS011;43082;43.568;22.256;2022-07-26T01:29:35;8.80;;;5.90;;
57225;SDS011;43082;43.568;22.256;2022-07-26T01:32:00;8.38;;;5.40;;
57225;SDS011;43082;43.568;22.256;2022-07-26T01:34:28;8.93;;;5.60;;
57225;SDS011;43082;43.568;22.256;2022-07-26T01:36:53;8.63;;;6.20;;
57225;SDS011;43082;43.568;22.256;2022-07-26T01:39:20;7.80;;;5.82;;
57225;SDS011;43082;43.568;22.256;2022-07-26T01:41:46;9.05;;;6.53;;
57225;SDS011;43082;43.568;22.256;2022-07-26T01:44:12;12.05;;;7.15;;
57225;SDS011;43082;43.568;22.256;2022-07-26T01:46:37;8.50;;;5.60;;
57225;SDS011;43082;43.568;22.256;2022-07-26T01:49:03;8.32;;;5.72;;
57225;SDS011;43082;43.568;22.256;2022-07-26T01:51:28;8.23;;;5.63;;
57225;SDS011;43082;43.568;22.256;2022-07-26T01:53:54;7.93;;;5.32;;
57225;SDS011;43082;43.568;22.256;2022-07-26T01:56:20;7.80;;;4.82;;
57225;SDS011;43082;43.568;22.256;2022-07-26T01:58:46;7.88;;;5.38;;
57225;SDS011;43082;43.568;22.256;2022-07-26T02:01:11;9.95;;;5.50;;
57225;SDS011;43082;43.568;22.256;2022-07-26T02:03:37;7.85;;;5.57;;
57225;SDS011;43082;43.568;22.256;2022-07-26T02:06:03;11.38;;;6.72;;
57225;SDS011;43082;43.568;22.256;2022-07-26T02:08:29;8.05;;;5.68;;
57225;SDS011;43082;43.568;22.256;2022-07-26T02:10:55;7.78;;;5.15;;
57225;SDS011;43082;43.568;22.256;2022-07-26T02:13:47;9.70;;;5.20;;
57225;SDS011;43082;43.568;22.256;2022-07-26T02:16:12;8.30;;;5.50;;
57225;SDS011;43082;43.568;22.256;2022-07-26T02:18:39;7.65;;;5.07;;
57225;SDS011;43082;43.568;22.256;2022-07-26T02:21:05;8.38;;;5.25;;
57225;SDS011;43082;43.568;22.256;2022-07-26T02:23:32;9.27;;;5.90;;
57225;SDS011;43082;43.568;22.256;2022-07-26T02:25:58;10.95;;;6.70;;
57225;SDS011;43082;43.568;22.256;2022-07-26T02:28:23;8.90;;;6.25;;
57225;SDS011;43082;43.568;22.256;2022-07-26T02:30:49;8.65;;;5.60;;
57225;SDS011;43082;43.568;22.256;2022-07-26T02:33:15;10.02;;;6.13;;
57225;SDS011;43082;43.568;22.256;2022-07-26T02:35:41;7.43;;;5.20;;
57225;SDS011;43082;43.568;22.256;2022-07-26T02:38:09;8.98;;;5.85;;
57225;SDS011;43082;43.568;22.256;2022-07-26T02:40:36;9.00;;;6.20;;
57225;SDS011;43082;43.568;22.256;2022-07-26T02:43:03;8.15;;;5.38;;
57225;SDS011;43082;43.568;22.256;2022-07-26T02:45:29;7.93;;;5.22;;
57225;SDS011;43082;43.568;22.256;2022-07-26T02:47:55;9.43;;;6.00;;
57225;SDS011;43082;43.568;22.256;2022-07-26T02:50:21;8.45;;;5.70;;
57225;SDS011;43082;43.568;22.256;2022-07-26T02:52:48;8.60;;;5.65;;
57225;SDS011;43082;43.568;22.256;2022-07-26T02:55:15;8.43;;;5.63;;
57225;SDS011;43082;43.568;22.256;2022-07-26T02:57:41;8.23;;;6.20;;
57225;SDS011;43082;43.568;22.256;2022-07-26T03:00:09;9.02;;;6.40;;
57225;SDS011;43082;43.568;22.256;2022-07-26T03:02:36;8.98;;;5.90;;
57225;SDS011;43082;43.568;22.256;2022-07-26T03:05:02;11.70;;;5.88;;
57225;SDS011;43082;43.568;22.256;2022-07-26T03:07:28;8.63;;;5.88;;
57225;SDS011;43082;43.568;22.256;2022-07-26T03:09:54;7.72;;;5.78;;
57225;SDS011;43082;43.568;22.256;2022-07-26T03:12:19;9.73;;;6.00;;
57225;SDS011;43082;43.568;22.256;2022-07-26T03:14:44;7.75;;;5.45;;
57225;SDS011;43082;43.568;22.256;2022-07-26T03:17:10;9.05;;;5.65;;
57225;SDS011;43082;43.568;22.256;2022-07-26T03:19:35;8.52;;;5.75;;
57225;SDS011;43082;43.568;22.256;2022-07-26T03:22:01;8.88;;;6.00;;
57225;SDS011;43082;43.568;22.256;2022-07-26T03:24:26;7.72;;;5.65;;
57225;SDS011;43082;43.568;22.256;2022-07-26T03:26:52;7.95;;;5.50;;
57225;SDS011;43082;43.568;22.256;2022-07-26T03:29:17;8.85;;;6.22;;
57225;SDS011;43082;43.568;22.256;2022-07-26T03:31:43;8.52;;;5.80;;
57225;SDS011;43082;43.568;22.256;2022-07-26T03:34:08;8.57;;;5.90;;
57225;SDS011;43082;43.568;22.256;2022-07-26T03:36:33;8.07;;;5.65;;
57225;SDS011;43082;43.568;22.256;2022-07-26T03:38:59;10.20;;;6.05;;
57225;SDS011;43082;43.568;22.256;2022-07-26T03:41:24;9.15;;;6.10;;
57225;SDS011;43082;43.568;22.256;2022-07-26T03:43:50;10.52;;;6.60;;
57225;SDS011;43082;43.568;22.256;2022-07-26T03:46:15;9.65;;;6.47;;
57225;SDS011;43082;43.568;22.256;2022-07-26T03:48:41;9.82;;;6.05;;
57225;SDS011;43082;43.568;22.256;2022-07-26T03:51:06;9.25;;;5.95;;
57225;SDS011;43082;43.568;22.256;2022-07-26T03:53:32;10.70;;;6.20;;
57225;SDS011;43082;43.568;22.256;2022-07-26T03:55:58;9.50;;;5.95;;
57225;SDS011;43082;43.568;22.256;2022-07-26T03:58:43;10.27;;;5.72;;
57225;SDS011;43082;43.568;22.256;2022-07-26T04:01:08;9.10;;;6.35;;
57225;SDS011;43082;43.568;22.256;2022-07-26T04:03:33;8.07;;;5.88;;
57225;SDS011;43082;43.568;22.256;2022-07-26T04:05:59;11.68;;;6.05;;
57225;SDS011;43082;43.568;22.256;2022-07-26T04:08:24;10.98;;;6.40;;
57225;SDS011;43082;43.568;22.256;2022-07-26T04:10:50;8.40;;;5.88;;
57225;SDS011;43082;43.568;22.256;2022-07-26T04:13:16;12.07;;;6.13;;
57225;SDS011;43082;43.568;22.256;2022-07-26T04:15:47;14.32;;;6.05;;
57225;SDS011;43082;43.568;22.256;2022-07-26T04:18:13;10.27;;;5.60;;
57225;SDS011;43082;43.568;22.256;2022-07-26T04:20:39;9.10;;;5.78;;
57225;SDS011;43082;43.568;22.256;2022-07-26T04:23:04;9.40;;;6.22;;
57225;SDS011;43082;43.568;22.256;2022-07-26T04:25:30;15.05;;;6.90;;
57225;SDS011;43082;43.568;22.256;2022-07-26T04:27:55;8.90;;;6.45;;
57225;SDS011;43082;43.568;22.256;2022-07-26T04:30:21;11.25;;;6.30;;
57225;SDS011;43082;43.568;22.256;2022-07-26T04:32:46;12.77;;;6.72;;
57225;SDS011;43082;43.568;22.256;2022-07-26T04:35:12;11.57;;;6.90;;
57225;SDS011;43082;43.568;22.256;2022-07-26T04:37:41;9.82;;;6.80;;
57225;SDS011;43082;43.568;22.256;2022-07-26T04:40:08;12.23;;;7.07;;
57225;SDS011;43082;43.568;22.256;2022-07-26T04:42:35;12.93;;;7.70;;
57225;SDS011;43082;43.568;22.256;2022-07-26T04:45:01;11.50;;;7.13;;
57225;SDS011;43082;43.568;22.256;2022-07-26T04:47:27;13.05;;;7.40;;
57225;SDS011;43082;43.568;22.256;2022-07-26T04:49:52;10.43;;;7.05;;
57225;SDS011;43082;43.568;22.256;2022-07-26T04:52:18;9.93;;;6.65;;
57225;SDS011;43082;43.568;22.256;2022-07-26T04:54:43;11.15;;;6.78;;
57225;SDS011;43082;43.568;22.256;2022-07-26T04:57:10;11.98;;;7.03;;
57225;SDS011;43082;43.568;22.256;2022-07-26T04:59:35;8.80;;;6.60;;
57225;SDS011;43082;43.568;22.256;2022-07-26T05:02:01;9.73;;;6.78;;
57225;SDS011;43082;43.568;22.256;2022-07-26T05:04:26;9.20;;;7.00;;
57225;SDS011;43082;43.568;22.256;2022-07-26T05:06:52;9.75;;;7.43;;
57225;SDS011;43082;43.568;22.256;2022-07-26T05:09:17;9.13;;;6.85;;
57225;SDS011;43082;43.568;22.256;2022-07-26T05:11:42;8.75;;;6.88;;
57225;SDS011;43082;43.568;22.256;2022-07-26T05:14:08;11.25;;;7.57;;
57225;SDS011;43082;43.568;22.256;2022-07-26T05:16:33;12.23;;;7.65;;
57225;SDS011;43082;43.568;22.256;2022-07-26T05:18:59;12.15;;;7.50;;
57225;SDS011;43082;43.568;22.256;2022-07-26T05:21:24;11.30;;;7.53;;
57225;SDS011;43082;43.568;22.256;2022-07-26T05:23:51;11.30;;;7.65;;
57225;SDS011;43082;43.568;22.256;2022-07-26T05:26:17;10.20;;;7.97;;
57225;SDS011;43082;43.568;22.256;2022-07-26T05:28:42;9.75;;;7.35;;
57225;SDS011;43082;43.568;22.256;2022-07-26T05:31:08;13.25;;;7.85;;
57225;SDS011;43082;43.568;22.256;2022-07-26T05:33:33;11.98;;;8.20;;
57225;SDS011;43082;43.568;22.256;2022-07-26T05:35:59;13.93;;;8.57;;
57225;SDS011;43082;43.568;22.256;2022-07-26T05:38:24;17.05;;;11.65;;
57225;SDS011;43082;43.568;22.256;2022-07-26T05:40:51;9.82;;;8.02;;
57225;SDS011;43082;43.568;22.256;2022-07-26T05:43:16;12.23;;;8.40;;
57225;SDS011;43082;43.568;22.256;2022-07-26T05:45:42;12.70;;;8.40;;
57225;SDS011;43082;43.568;22.256;2022-07-26T05:48:08;11.93;;;8.43;;
57225;SDS011;43082;43.568;22.256;2022-07-26T05:50:33;10.13;;;7.70;;
57225;SDS011;43082;43.568;22.256;2022-07-26T05:52:59;15.15;;;9.95;;
57225;SDS011;43082;43.568;22.256;2022-07-26T05:55:24;12.63;;;8.40;;
57225;SDS011;43082;43.568;22.256;2022-07-26T05:57:50;13.60;;;8.50;;
57225;SDS011;43082;43.568;22.256;2022-07-26T06:00:16;10.23;;;7.57;;
57225;SDS011;43082;43.568;22.256;2022-07-26T06:02:42;14.07;;;9.20;;
57225;SDS011;43082;43.568;22.256;2022-07-26T06:05:07;15.85;;;11.30;;
57225;SDS011;43082;43.568;22.256;2022-07-26T06:07:33;12.38;;;8.02;;
57225;SDS011;43082;43.568;22.256;2022-07-26T06:09:58;12.15;;;7.78;;
57225;SDS011;43082;43.568;22.256;2022-07-26T06:12:24;12.57;;;7.90;;
57225;SDS011;43082;43.568;22.256;2022-07-26T06:14:49;10.63;;;7.47;;
57225;SDS011;43082;43.568;22.256;2022-07-26T06:17:15;12.90;;;8.80;;
57225;SDS011;43082;43.568;22.256;2022-07-26T06:19:40;17.80;;;14.50;;
57225;SDS011;43082;43.568;22.256;2022-07-26T06:22:06;16.38;;;10.75;;
57225;SDS011;43082;43.568;22.256;2022-07-26T06:24:31;11.25;;;6.75;;
57225;SDS011;43082;43.568;22.256;2022-07-26T06:26:57;14.15;;;9.27;;
57225;SDS011;43082;43.568;22.256;2022-07-26T06:29:22;13.18;;;9.30;;
57225;SDS011;43082;43.568;22.256;2022-07-26T06:31:48;9.85;;;7.75;;
57225;SDS011;43082;43.568;22.256;2022-07-26T06:34:14;9.95;;;7.85;;
57225;SDS011;43082;43.568;22.256;2022-07-26T06:36:39;11.52;;;7.78;;
57225;SDS011;43082;43.568;22.256;2022-07-26T06:39:05;19.55;;;7.82;;
57225;SDS011;43082;43.568;22.256;2022-07-26T06:41:46;12.52;;;9.65;;
57225;SDS011;43082;43.568;22.256;2022-07-26T06:44:11;10.95;;;8.35;;
57225;SDS011;43082;43.568;22.256;2022-07-26T06:46:37;8.85;;;7.07;;
57225;SDS011;43082;43.568;22.256;2022-07-26T06:49:02;13.70;;;8.57;;
57225;SDS011;43082;43.568;22.256;2022-07-26T06:51:28;10.00;;;7.30;;
57225;SDS011;43082;43.568;22.256;2022-07-26T06:53:53;11.07;;;6.75;;
57225;SDS011;43082;43.568;22.256;2022-07-26T06:56:19;9.05;;;6.35;;
57225;SDS011;43082;43.568;22.256;2022-07-26T06:58:45;10.48;;;7.78;;
57225;SDS011;43082;43.568;22.256;2022-07-26T07:01:10;10.65;;;7.05;;
57225;SDS011;43082;43.568;22.256;2022-07-26T07:03:36;9.60;;;7.43;;
57225;SDS011;43082;43.568;22.256;2022-07-26T07:06:01;12.38;;;8.80;;
57225;SDS011;43082;43.568;22.256;2022-07-26T07:08:27;11.45;;;7.13;;
57225;SDS011;43082;43.568;22.256;2022-07-26T07:10:53;13.23;;;9.77;;
57225;SDS011;43082;43.568;22.256;2022-07-26T07:13:20;11.55;;;7.43;;
57225;SDS011;43082;43.568;22.256;2022-07-26T07:15:45;11.98;;;7.82;;
57225;SDS011;43082;43.568;22.256;2022-07-26T07:18:11;8.88;;;6.93;;
57225;SDS011;43082;43.568;22.256;2022-07-26T07:20:37;10.18;;;7.38;;
57225;SDS011;43082;43.568;22.256;2022-07-26T07:23:03;15.98;;;10.13;;
57225;SDS011;43082;43.568;22.256;2022-07-26T07:25:29;14.40;;;9.65;;
57225;SDS011;43082;43.568;22.256;2022-07-26T07:27:54;11.18;;;7.45;;
57225;SDS011;43082;43.568;22.256;2022-07-26T07:30:20;13.38;;;9.05;;
57225;SDS011;43082;43.568;22.256;2022-07-26T07:32:45;14.68;;;10.07;;
57225;SDS011;43082;43.568;22.256;2022-07-26T07:35:10;13.57;;;9.57;;
57225;SDS011;43082;43.568;22.256;2022-07-26T07:37:36;12.65;;;9.15;;
57225;SDS011;43082;43.568;22.256;2022-07-26T07:40:05;10.38;;;7.30;;
57225;SDS011;43082;43.568;22.256;2022-07-26T07:42:32;10.48;;;6.57;;
57225;SDS011;43082;43.568;22.256;2022-07-26T07:44:57;12.00;;;6.90;;
57225;SDS011;43082;43.568;22.256;2022-07-26T07:47:22;10.00;;;6.20;;
57225;SDS011;43082;43.568;22.256;2022-07-26T07:49:48;12.95;;;6.55;;
57225;SDS011;43082;43.568;22.256;2022-07-26T07:52:13;11.23;;;5.90;;
57225;SDS011;43082;43.568;22.256;2022-07-26T07:54:39;9.45;;;6.60;;
57225;SDS011;43082;43.568;22.256;2022-07-26T07:57:04;13.73;;;9.73;;
57225;SDS011;43082;43.568;22.256;2022-07-26T07:59:30;10.07;;;6.55;;
57225;SDS011;43082;43.568;22.256;2022-07-26T08:01:55;9.82;;;7.40;;
57225;SDS011;43082;43.568;22.256;2022-07-26T08:04:21;9.10;;;6.32;;
57225;SDS011;43082;43.568;22.256;2022-07-26T08:06:46;10.15;;;7.18;;
57225;SDS011;43082;43.568;22.256;2022-07-26T08:09:12;10.18;;;6.00;;
57225;SDS011;43082;43.568;22.256;2022-07-26T08:11:37;10.05;;;6.25;;
57225;SDS011;43082;43.568;22.256;2022-07-26T08:14:03;9.43;;;5.95;;
57225;SDS011;43082;43.568;22.256;2022-07-26T08:16:28;10.05;;;6.05;;
57225;SDS011;43082;43.568;22.256;2022-07-26T08:18:54;8.55;;;5.85;;
57225;SDS011;43082;43.568;22.256;2022-07-26T08:21:20;9.00;;;5.80;;
57225;SDS011;43082;43.568;22.256;2022-07-26T08:23:45;11.13;;;5.72;;
57225;SDS011;43082;43.568;22.256;2022-07-26T08:26:11;13.32;;;6.30;;
57225;SDS011;43082;43.568;22.256;2022-07-26T08:28:36;9.63;;;6.25;;
57225;SDS011;43082;43.568;22.256;2022-07-26T08:31:02;9.15;;;5.80;;
57225;SDS011;43082;43.568;22.256;2022-07-26T08:33:27;8.18;;;5.50;;
57225;SDS011;43082;43.568;22.256;2022-07-26T08:35:53;8.40;;;6.40;;
57225;SDS011;43082;43.568;22.256;2022-07-26T08:38:18;8.40;;;5.93;;
57225;SDS011;43082;43.568;22.256;2022-07-26T08:40:44;8.02;;;4.57;;
57225;SDS011;43082;43.568;22.256;2022-07-26T08:43:09;7.88;;;5.43;;
57225;SDS011;43082;43.568;22.256;2022-07-26T08:45:35;7.68;;;5.53;;
57225;SDS011;43082;43.568;22.256;2022-07-26T08:48:01;7.90;;;5.40;;
57225;SDS011;43082;43.568;22.256;2022-07-26T08:50:27;9.20;;;5.82;;
57225;SDS011;43082;43.568;22.256;2022-07-26T08:52:54;8.55;;;5.60;;
57225;SDS011;43082;43.568;22.256;2022-07-26T08:55:25;9.80;;;5.50;;
57225;SDS011;43082;43.568;22.256;2022-07-26T08:57:51;8.07;;;5.45;;
57225;SDS011;43082;43.568;22.256;2022-07-26T09:00:18;8.13;;;5.65;;
57225;SDS011;43082;43.568;22.256;2022-07-26T09:02:49;10.57;;;6.07;;
57225;SDS011;43082;43.568;22.256;2022-07-26T09:05:19;7.90;;;5.22;;
57225;SDS011;43082;43.568;22.256;2022-07-26T09:10:15;7.82;;;5.85;;
57225;SDS011;43082;43.568;22.256;2022-07-26T09:12:41;9.30;;;6.78;;
57225;SDS011;43082;43.568;22.256;2022-07-26T09:15:07;9.05;;;6.50;;
57225;SDS011;43082;43.568;22.256;2022-07-26T09:17:43;9.00;;;6.40;;
57225;SDS011;43082;43.568;22.256;2022-07-26T09:20:18;9.73;;;5.93;;
57225;SDS011;43082;43.568;22.256;2022-07-26T09:25:30;11.20;;;5.72;;
57225;SDS011;43082;43.568;22.256;2022-07-26T09:27:57;9.40;;;5.63;;
57225;SDS011;43082;43.568;22.256;2022-07-26T09:30:24;9.73;;;5.90;;
57225;SDS011;43082;43.568;22.256;2022-07-26T09:35:25;8.27;;;5.53;;
57225;SDS011;43082;43.568;22.256;2022-07-26T09:37:51;8.40;;;5.53;;
57225;SDS011;43082;43.568;22.256;2022-07-26T09:40:17;7.60;;;5.88;;
57225;SDS011;43082;43.568;22.256;2022-07-26T09:45:41;8.52;;;5.38;;
57225;SDS011;43082;43.568;22.256;2022-07-26T09:48:07;7.65;;;5.10;;
57225;SDS011;43082;43.568;22.256;2022-07-26T09:50:35;12.35;;;9.40;;
57225;SDS011;43082;43.568;22.256;2022-07-26T09:58:20;9.27;;;6.40;;
57225;SDS011;43082;43.568;22.256;2022-07-26T10:00:46;12.40;;;9.20;;
57225;SDS011;43082;43.568;22.256;2022-07-26T10:03:12;10.30;;;5.88;;
57225;SDS011;43082;43.568;22.256;2022-07-26T10:05:38;8.80;;;5.53;;
57225;SDS011;43082;43.568;22.256;2022-07-26T10:08:04;9.05;;;6.25;;
57225;SDS011;43082;43.568;22.256;2022-07-26T10:10:32;9.43;;;6.40;;
57225;SDS011;43082;43.568;22.256;2022-07-26T10:13:01;10.10;;;5.75;;
57225;SDS011;43082;43.568;22.256;2022-07-26T10:15:46;8.25;;;5.53;;
57225;SDS011;43082;43.568;22.256;2022-07-26T10:23:43;7.95;;;5.43;;
57225;SDS011;43082;43.568;22.256;2022-07-26T10:26:11;8.13;;;6.40;;
57225;SDS011;43082;43.568;22.256;2022-07-26T10:32:14;8.57;;;6.25;;
57225;SDS011;43082;43.568;22.256;2022-07-26T10:34:33;9.18;;;5.55;;
57225;SDS011;43082;43.568;22.256;2022-07-26T10:37:02;13.55;;;5.60;;
57225;SDS011;43082;43.568;22.256;2022-07-26T10:39:29;7.88;;;5.88;;
57225;SDS011;43082;43.568;22.256;2022-07-26T10:41:59;8.30;;;5.40;;
57225;SDS011;43082;43.568;22.256;2022-07-26T10:44:29;9.45;;;5.57;;
57225;SDS011;43082;43.568;22.256;2022-07-26T10:47:01;9.90;;;5.18;;
57225;SDS011;43082;43.568;22.256;2022-07-26T10:49:36;8.02;;;5.03;;
57225;SDS011;43082;43.568;22.256;2022-07-26T11:00:07;8.20;;;4.70;;
57225;SDS011;43082;43.568;22.256;2022-07-26T11:02:34;6.82;;;4.50;;
57225;SDS011;43082;43.568;22.256;2022-07-26T11:07:40;11.35;;;4.80;;
57225;SDS011;43082;43.568;22.256;2022-07-26T11:10:36;6.95;;;4.30;;
57225;SDS011;43082;43.568;22.256;2022-07-26T11:13:10;8.10;;;4.80;;
57225;SDS011;43082;43.568;22.256;2022-07-26T11:15:40;7.65;;;4.45;;
57225;SDS011;43082;43.568;22.256;2022-07-26T11:18:21;6.53;;;4.68;;
57225;SDS011;43082;43.568;22.256;2022-07-26T11:23:28;6.85;;;4.38;;
57225;SDS011;43082;43.568;22.256;2022-07-26T11:28:23;7.93;;;4.28;;
57225;SDS011;43082;43.568;22.256;2022-07-26T11:30:55;7.35;;;3.78;;
57225;SDS011;43082;43.568;22.256;2022-07-26T11:33:43;7.13;;;3.70;;
57225;SDS011;43082;43.568;22.256;2022-07-26T11:36:13;7.03;;;4.30;;
57225;SDS011;43082;43.568;22.256;2022-07-26T11:38:56;6.90;;;4.70;;
57225;SDS011;43082;43.568;22.256;2022-07-26T11:41:26;6.53;;;4.22;;
57225;SDS011;43082;43.568;22.256;2022-07-26T11:43:53;9.10;;;5.38;;
57225;SDS011;43082;43.568;22.256;2022-07-26T11:46:19;8.00;;;4.78;;
57225;SDS011;43082;43.568;22.256;2022-07-26T11:48:49;7.70;;;4.80;;
57225;SDS011;43082;43.568;22.256;2022-07-26T11:51:16;6.63;;;4.70;;
57225;SDS011;43082;43.568;22.256;2022-07-26T11:53:42;20.95;;;15.48;;
57225;SDS011;43082;43.568;22.256;2022-07-26T11:56:09;9.43;;;6.60;;
57225;SDS011;43082;43.568;22.256;2022-07-26T11:58:39;7.70;;;4.45;;
57225;SDS011;43082;43.568;22.256;2022-07-26T12:01:05;6.55;;;4.57;;
57225;SDS011;43082;43.568;22.256;2022-07-26T12:03:35;11.27;;;5.13;;
57225;SDS011;43082;43.568;22.256;2022-07-26T12:06:05;8.23;;;5.05;;
57225;SDS011;43082;43.568;22.256;2022-07-26T12:08:42;7.78;;;5.20;;
57225;SDS011;43082;43.568;22.256;2022-07-26T12:11:09;6.95;;;4.85;;
57225;SDS011;43082;43.568;22.256;2022-07-26T12:13:52;8.80;;;5.55;;
57225;SDS011;43082;43.568;22.256;2022-07-26T12:19:02;8.90;;;4.78;;
57225;SDS011;43082;43.568;22.256;2022-07-26T12:21:39;9.75;;;5.72;;
57225;SDS011;43082;43.568;22.256;2022-07-26T12:24:13;10.18;;;4.80;;
57225;SDS011;43082;43.568;22.256;2022-07-26T12:29:44;6.72;;;4.65;;
57225;SDS011;43082;43.568;22.256;2022-07-26T12:32:11;11.32;;;7.20;;
57225;SDS011;43082;43.568;22.256;2022-07-26T12:37:27;14.30;;;11.52;;
57225;SDS011;43082;43.568;22.256;2022-07-26T12:39:58;14.68;;;11.95;;
57225;SDS011;43082;43.568;22.256;2022-07-26T12:42:35;8.32;;;5.68;;
57225;SDS011;43082;43.568;22.256;2022-07-26T12:45:03;9.38;;;5.03;;
57225;SDS011;43082;43.568;22.256;2022-07-26T12:47:31;11.38;;;6.90;;
57225;SDS011;43082;43.568;22.256;2022-07-26T12:49:57;14.23;;;12.27;;
57225;SDS011;43082;43.568;22.256;2022-07-26T12:52:22;8.98;;;6.88;;
57225;SDS011;43082;43.568;22.256;2022-07-26T12:54:49;11.68;;;5.60;;
57225;SDS011;43082;43.568;22.256;2022-07-26T12:57:16;11.07;;;7.07;;
57225;SDS011;43082;43.568;22.256;2022-07-26T12:59:42;10.32;;;6.65;;
57225;SDS011;43082;43.568;22.256;2022-07-26T13:02:08;9.77;;;5.22;;
57225;SDS011;43082;43.568;22.256;2022-07-26T13:04:34;8.35;;;6.50;;
57225;SDS011;43082;43.568;22.256;2022-07-26T13:06:59;8.75;;;5.90;;
57225;SDS011;43082;43.568;22.256;2022-07-26T13:09:26;7.78;;;4.80;;
57225;SDS011;43082;43.568;22.256;2022-07-26T13:11:52;8.50;;;5.32;;
57225;SDS011;43082;43.568;22.256;2022-07-26T13:14:17;7.18;;;4.70;;
57225;SDS011;43082;43.568;22.256;2022-07-26T13:16:43;10.50;;;6.35;;
57225;SDS011;43082;43.568;22.256;2022-07-26T13:19:08;8.27;;;5.60;;
57225;SDS011;43082;43.568;22.256;2022-07-26T13:21:34;8.25;;;5.57;;
57225;SDS011;43082;43.568;22.256;2022-07-26T13:23:59;8.70;;;4.82;;
57225;SDS011;43082;43.568;22.256;2022-07-26T13:26:25;7.47;;;5.10;;
57225;SDS011;43082;43.568;22.256;2022-07-26T13:28:51;8.48;;;5.53;;
57225;SDS011;43082;43.568;22.256;2022-07-26T13:31:16;10.27;;;4.97;;
57225;SDS011;43082;43.568;22.256;2022-07-26T13:33:42;8.30;;;4.43;;
57225;SDS011;43082;43.568;22.256;2022-07-26T13:36:07;8.63;;;5.05;;
57225;SDS011;43082;43.568;22.256;2022-07-26T13:38:33;8.45;;;5.13;;
57225;SDS011;43082;43.568;22.256;2022-07-26T13:40:59;8.50;;;5.38;;
57225;SDS011;43082;43.568;22.256;2022-07-26T13:43:27;7.53;;;4.90;;
57225;SDS011;43082;43.568;22.256;2022-07-26T13:45:55;6.35;;;4.50;;
57225;SDS011;43082;43.568;22.256;2022-07-26T13:48:20;7.18;;;4.50;;
57225;SDS011;43082;43.568;22.256;2022-07-26T13:50:46;10.63;;;4.70;;
57225;SDS011;43082;43.568;22.256;2022-07-26T13:53:11;6.40;;;4.32;;
57225;SDS011;43082;43.568;22.256;2022-07-26T13:55:37;9.82;;;4.82;;
57225;SDS011;43082;43.568;22.256;2022-07-26T13:58:02;7.07;;;4.63;;
57225;SDS011;43082;43.568;22.256;2022-07-26T14:00:28;8.30;;;4.40;;
57225;SDS011;43082;43.568;22.256;2022-07-26T14:02:54;6.65;;;4.50;;
57225;SDS011;43082;43.568;22.256;2022-07-26T14:05:21;7.85;;;5.03;;
57225;SDS011;43082;43.568;22.256;2022-07-26T14:07:48;6.93;;;4.95;;
57225;SDS011;43082;43.568;22.256;2022-07-26T14:10:13;8.43;;;4.80;;
57225;SDS011;43082;43.568;22.256;2022-07-26T14:12:39;8.13;;;4.82;;
57225;SDS011;43082;43.568;22.256;2022-07-26T14:15:05;7.10;;;4.82;;
57225;SDS011;43082;43.568;22.256;2022-07-26T14:17:33;8.68;;;4.65;;
57225;SDS011;43082;43.568;22.256;2022-07-26T14:20:00;7.13;;;4.60;;
57225;SDS011;43082;43.568;22.256;2022-07-26T14:22:26;8.93;;;4.43;;
57225;SDS011;43082;43.568;22.256;2022-07-26T14:24:51;7.75;;;5.00;;
57225;SDS011;43082;43.568;22.256;2022-07-26T14:27:17;6.93;;;4.70;;
57225;SDS011;43082;43.568;22.256;2022-07-26T14:29:42;6.20;;;4.30;;
57225;SDS011;43082;43.568;22.256;2022-07-26T14:32:10;6.85;;;4.30;;
57225;SDS011;43082;43.568;22.256;2022-07-26T14:34:38;8.88;;;5.05;;
57225;SDS011;43082;43.568;22.256;2022-07-26T14:37:04;7.85;;;5.55;;
57225;SDS011;43082;43.568;22.256;2022-07-26T14:39:30;7.28;;;5.40;;
57225;SDS011;43082;43.568;22.256;2022-07-26T14:41:55;9.38;;;5.45;;
57225;SDS011;43082;43.568;22.256;2022-07-26T14:44:21;7.00;;;4.68;;
57225;SDS011;43082;43.568;22.256;2022-07-26T14:46:46;7.13;;;4.75;;
57225;SDS011;43082;43.568;22.256;2022-07-26T14:49:12;6.43;;;4.18;;
57225;SDS011;43082;43.568;22.256;2022-07-26T14:51:38;6.93;;;4.43;;
57225;SDS011;43082;43.568;22.256;2022-07-26T14:54:04;8.07;;;4.28;;
57225;SDS011;43082;43.568;22.256;2022-07-26T14:56:29;8.05;;;4.20;;
57225;SDS011;43082;43.568;22.256;2022-07-26T14:58:55;6.93;;;4.03;;
57225;SDS011;43082;43.568;22.256;2022-07-26T15:01:20;7.30;;;4.43;;
57225;SDS011;43082;43.568;22.256;2022-07-26T15:03:46;6.72;;;4.55;;
57225;SDS011;43082;43.568;22.256;2022-07-26T15:06:13;8.18;;;4.30;;
57225;SDS011;43082;43.568;22.256;2022-07-26T15:08:39;12.52;;;4.07;;
57225;SDS011;43082;43.568;22.256;2022-07-26T15:11:05;7.63;;;4.93;;
57225;SDS011;43082;43.568;22.256;2022-07-26T15:13:30;7.22;;;3.80;;
57225;SDS011;43082;43.568;22.256;2022-07-26T15:15:56;8.15;;;4.53;;
57225;SDS011;43082;43.568;22.256;2022-07-26T15:18:21;6.70;;;4.30;;